createdAt,value
2022-10-12T00:07:49.359Z,21.27
2022-10-12T00:17:56.988Z,23.27
2022-10-12T00:28:04.431Z,17.35
2022-10-12T00:38:11.910Z,19.1
2022-10-12T00:48:19.399Z,18.23
2022-10-12T00:58:27.263Z,20.88
2022-10-12T01:08:34.805Z,18.62
2022-10-12T01:18:42.353Z,22.35
2022-10-12T01:28:50.581Z,19.86
2022-10-12T01:38:58.132Z,20.2
2022-10-12T01:49:05.771Z,17.48
2022-10-12T01:59:13.143Z,19.39
2022-10-12T02:09:20.704Z,23.74
2022-10-12T02:19:29.356Z,23.69
2022-10-12T02:29:38.013Z,24.25
2022-10-12T02:39:45.560Z,21.39
2022-10-12T02:49:53.063Z,18.84
2022-10-12T03:00:00.579Z,17.8
2022-10-12T03:10:09.313Z,17.62
2022-10-12T03:20:18.230Z,16.94
2022-10-12T03:30:25.931Z,16.22
2022-10-12T03:40:33.606Z,19
2022-10-12T03:50:41.493Z,19.52
2022-10-12T04:00:50.084Z,19.55
2022-10-12T04:10:57.616Z,19.46
2022-10-12T04:21:05.259Z,19.34
2022-10-12T04:31:12.900Z,19.97
2022-10-12T04:41:20.451Z,15.56
2022-10-12T04:51:38.185Z,16.26
2022-10-12T05:01:29.309Z,20.53
2022-10-12T05:11:36.903Z,21.56
2022-10-12T05:21:44.506Z,17.88
2022-10-12T05:31:52.006Z,14.41
2022-10-12T05:41:59.530Z,18.2
2022-10-12T05:52:07.084Z,15.91
2022-10-12T06:02:14.857Z,18.2
2022-10-12T06:12:22.498Z,16.24
2022-10-12T06:22:30.014Z,17.14
2022-10-12T06:32:39.071Z,12.09
2022-10-12T06:42:45.908Z,13.58
2022-10-12T06:52:53.462Z,15.53
2022-10-12T07:03:01.016Z,17.65
2022-10-12T07:13:08.508Z,17.22
2022-10-12T07:23:16.216Z,17.02
2022-10-12T07:33:23.754Z,14.86
2022-10-12T07:43:31.445Z,31.08
2022-10-12T07:53:39.090Z,16.76
2022-10-12T08:03:46.831Z,13.43
2022-10-12T08:13:54.307Z,16.22
2022-10-12T08:24:01.934Z,14.83
2022-10-12T08:34:10.801Z,14.21
2022-10-12T08:44:18.541Z,10.24
2022-10-12T08:54:27.183Z,8.77
2022-10-12T09:04:36.058Z,9.12
2022-10-12T09:14:46.848Z,8.88
2022-10-12T09:24:45.294Z,10.28
2022-10-12T09:34:53.009Z,10.97
2022-10-12T09:45:00.731Z,12.63
2022-10-12T09:55:08.434Z,9.69
2022-10-12T10:05:16.185Z,9.74
2022-10-12T10:15:24.779Z,5.74
2022-10-12T10:25:32.907Z,11.6
2022-10-12T10:35:40.937Z,13.01
2022-10-12T10:45:48.480Z,20.08
2022-10-12T10:55:56.253Z,13.82
2022-10-12T11:06:04.230Z,8.6
2022-10-12T11:16:14.240Z,7.45
2022-10-12T11:26:11.887Z,6.41
2022-10-12T11:36:19.504Z,5.29
2022-10-12T11:46:27.031Z,4.48
2022-10-12T12:16:38.712Z,5.11
2022-10-12T12:26:46.279Z,7.25
2022-10-12T12:36:53.804Z,5.86
2022-10-12T12:47:02.058Z,6.51
2022-10-12T12:57:39.985Z,8.13
2022-10-12T13:07:17.417Z,14.58
2022-10-12T13:17:32.907Z,8.03
2022-10-12T13:37:27.537Z,6.54
2022-10-12T13:47:38.552Z,7.72
2022-10-12T13:57:39.233Z,6.24
2022-10-12T14:07:46.822Z,5.54
2022-10-12T14:17:55.553Z,5.18
2022-10-12T14:28:06.641Z,6.45
2022-10-12T14:38:06.967Z,6.29
2022-10-12T14:48:05.755Z,6.07
2022-10-12T14:58:14.347Z,7.43
2022-10-12T15:08:21.876Z,6.43
2022-10-12T15:18:29.432Z,6.19
2022-10-12T15:28:37.523Z,6.73
2022-10-12T15:38:44.957Z,8.17
2022-10-12T15:48:52.652Z,7.4
2022-10-12T15:59:01.147Z,8.13
2022-10-12T16:09:08.818Z,8.67
2022-10-12T16:19:19.237Z,7.71
2022-10-12T16:29:16.756Z,11.13
2022-10-12T16:39:24.235Z,13.08
2022-10-12T16:49:31.623Z,11.71
2022-10-12T16:59:39.156Z,10.42
2022-10-12T17:09:46.739Z,10.68
2022-10-12T17:19:54.178Z,11.12
2022-10-12T17:30:02.724Z,10.8
2022-10-12T17:40:10.258Z,10.77
2022-10-12T17:50:18.849Z,14.19
2022-10-12T18:00:26.291Z,11.83
2022-10-12T18:10:33.376Z,15.95
2022-10-12T18:20:40.860Z,17.25
2022-10-12T18:30:54.100Z,16.15
2022-10-12T18:40:56.483Z,17.98
2022-10-12T18:51:04.065Z,22.56
2022-10-12T19:01:11.777Z,23.6
2022-10-12T19:11:19.406Z,20.45
2022-10-12T19:21:30.567Z,17.18
2022-10-12T19:31:30.137Z,13.78
2022-10-12T19:41:37.721Z,15.07
2022-10-12T19:51:45.622Z,15.65
2022-10-12T20:01:54.763Z,15.88
2022-10-12T20:12:04.539Z,16.95
2022-10-12T20:22:06.659Z,14.3
2022-10-12T20:32:06.336Z,15.39
2022-10-12T20:42:20.669Z,18.79
2022-10-12T20:52:22.489Z,14.61
2022-10-12T21:02:30.797Z,15.44
2022-10-12T21:12:40.266Z,15.28
2022-10-12T21:22:48.343Z,14.55
2022-10-12T21:32:56.164Z,16.84
2022-10-12T21:43:03.794Z,16.23
2022-10-12T21:53:11.420Z,13.18
2022-10-12T22:03:19.108Z,11.95
2022-10-12T22:13:26.634Z,12.85
2022-10-12T22:23:34.430Z,13.2
2022-10-12T22:33:43.088Z,14.54
2022-10-12T22:43:50.657Z,10.54
2022-10-12T22:54:00.210Z,13.18
2022-10-12T23:04:07.826Z,13.29
2022-10-12T23:14:16.461Z,14.62
2022-10-12T23:24:24.134Z,15.41
2022-10-12T23:34:32.997Z,14.26
2022-10-12T23:44:41.632Z,14.88
2022-10-12T23:54:49.237Z,12.01
